sensor_id;sensor_type;location;lat;lon;timestamp;temperature;humidity
20750;DHT22;10535;50.664;4.564;2023-01-26T00:00:54;0.70;99.90
20750;DHT22;10535;50.664;4.564;2023-01-26T00:03:21;0.60;99.90
20750;DHT22;10535;50.664;4.564;2023-01-26T00:05:47;0.60;99.90
20750;DHT22;10535;50.664;4.564;2023-01-26T00:08:13;0.60;99.90
20750;DHT22;10535;50.664;4.564;2023-01-26T00:10:40;0.60;99.90
20750;DHT22;10535;50.664;4.564;2023-01-26T00:13:07;0.50;99.90
20750;DHT22;10535;50.664;4.564;2023-01-26T00:15:34;0.50;99.90
20750;DHT22;10535;50.664;4.564;2023-01-26T00:18:00;0.40;99.90
20750;DHT22;10535;50.664;4.564;2023-01-26T00:20:26;0.60;99.90
20750;DHT22;10535;50.664;4.564;2023-01-26T00:22:52;0.60;99.90
20750;DHT22;10535;50.664;4.564;2023-01-26T00:25:18;0.50;99.90
20750;DHT22;10535;50.664;4.564;2023-01-26T00:27:44;0.60;99.90
20750;DHT22;10535;50.664;4.564;2023-01-26T00:30:10;0.70;99.90
20750;DHT22;10535;50.664;4.564;2023-01-26T00:32:36;0.70;99.90
20750;DHT22;10535;50.664;4.564;2023-01-26T00:35:03;0.60;99.90
20750;DHT22;10535;50.664;4.564;2023-01-26T00:37:29;0.60;99.90
20750;DHT22;10535;50.664;4.564;2023-01-26T00:39:54;0.70;99.90
20750;DHT22;10535;50.664;4.564;2023-01-26T00:42:20;0.70;99.90
20750;DHT22;10535;50.664;4.564;2023-01-26T00:44:48;0.60;99.90
20750;DHT22;10535;50.664;4.564;2023-01-26T00:47:14;0.50;99.90
20750;DHT22;10535;50.664;4.564;2023-01-26T00:49:40;0.60;99.90
20750;DHT22;10535;50.664;4.564;2023-01-26T00:52:06;0.80;99.90
20750;DHT22;10535;50.664;4.564;2023-01-26T00:54:32;0.70;99.90
20750;DHT22;10535;50.664;4.564;2023-01-26T00:56:58;0.60;99.90
20750;DHT22;10535;50.664;4.564;2023-01-26T00:59:23;0.60;99.90
20750;DHT22;10535;50.664;4.564;2023-01-26T01:01:50;0.50;99.90
20750;DHT22;10535;50.664;4.564;2023-01-26T01:04:16;0.60;99.90
20750;DHT22;10535;50.664;4.564;2023-01-26T01:06:42;0.60;99.90
20750;DHT22;10535;50.664;4.564;2023-01-26T01:09:08;0.60;99.90
20750;DHT22;10535;50.664;4.564;2023-01-26T01:11:33;0.60;99.90
20750;DHT22;10535;50.664;4.564;2023-01-26T01:14:00;0.50;99.90
20750;DHT22;10535;50.664;4.564;2023-01-26T01:16:26;0.60;99.90
20750;DHT22;10535;50.664;4.564;2023-01-26T01:18:53;0.70;99.90
20750;DHT22;10535;50.664;4.564;2023-01-26T01:21:19;0.70;99.90
20750;DHT22;10535;50.664;4.564;2023-01-26T01:23:45;0.70;99.90
20750;DHT22;10535;50.664;4.564;2023-01-26T01:26:11;0.80;99.90
20750;DHT22;10535;50.664;4.564;2023-01-26T01:28:37;0.70;99.90
20750;DHT22;10535;50.664;4.564;2023-01-26T01:31:14;0.70;99.90
20750;DHT22;10535;50.664;4.564;2023-01-26T01:33:41;0.80;99.90
20750;DHT22;10535;50.664;4.564;2023-01-26T01:36:10;0.80;99.90
20750;DHT22;10535;50.664;4.564;2023-01-26T01:38:36;0.90;99.90
20750;DHT22;10535;50.664;4.564;2023-01-26T01:41:02;0.90;99.90
20750;DHT22;10535;50.664;4.564;2023-01-26T01:43:28;0.80;99.90
20750;DHT22;10535;50.664;4.564;2023-01-26T01:45:54;1.00;99.90
20750;DHT22;10535;50.664;4.564;2023-01-26T01:51:04;0.90;99.90
20750;DHT22;10535;50.664;4.564;2023-01-26T01:53:36;1.00;99.90
20750;DHT22;10535;50.664;4.564;2023-01-26T01:56:06;1.00;99.90
20750;DHT22;10535;50.664;4.564;2023-01-26T01:58:36;1.00;99.90
20750;DHT22;10535;50.664;4.564;2023-01-26T02:01:05;1.30;99.90
20750;DHT22;10535;50.664;4.564;2023-01-26T02:03:32;1.10;99.90
20750;DHT22;10535;50.664;4.564;2023-01-26T02:06:15;1.20;99.90
20750;DHT22;10535;50.664;4.564;2023-01-26T02:08:45;1.20;99.90
20750;DHT22;10535;50.664;4.564;2023-01-26T02:11:59;1.10;99.90
20750;DHT22;10535;50.664;4.564;2023-01-26T02:14:04;1.00;99.90
20750;DHT22;10535;50.664;4.564;2023-01-26T02:16:32;0.90;99.90
20750;DHT22;10535;50.664;4.564;2023-01-26T02:18:58;1.10;99.90
20750;DHT22;10535;50.664;4.564;2023-01-26T02:21:23;1.10;99.90
20750;DHT22;10535;50.664;4.564;2023-01-26T02:26:53;1.00;99.90
20750;DHT22;10535;50.664;4.564;2023-01-26T02:29:19;1.00;99.90
20750;DHT22;10535;50.664;4.564;2023-01-26T02:31:45;1.10;99.90
20750;DHT22;10535;50.664;4.564;2023-01-26T02:34:11;1.00;99.90
20750;DHT22;10535;50.664;4.564;2023-01-26T02:36:37;1.00;99.90
20750;DHT22;10535;50.664;4.564;2023-01-26T02:42:01;1.00;99.90
20750;DHT22;10535;50.664;4.564;2023-01-26T02:44:46;1.30;99.90
20750;DHT22;10535;50.664;4.564;2023-01-26T02:47:15;1.20;99.90
20750;DHT22;10535;50.664;4.564;2023-01-26T02:49:41;1.10;99.90
20750;DHT22;10535;50.664;4.564;2023-01-26T02:52:16;1.10;99.90
20750;DHT22;10535;50.664;4.564;2023-01-26T02:54:42;1.20;99.90
20750;DHT22;10535;50.664;4.564;2023-01-26T02:57:26;1.00;99.90
20750;DHT22;10535;50.664;4.564;2023-01-26T02:59:52;1.10;99.90
20750;DHT22;10535;50.664;4.564;2023-01-26T03:02:18;1.20;99.90
20750;DHT22;10535;50.664;4.564;2023-01-26T03:04:44;1.30;99.90
20750;DHT22;10535;50.664;4.564;2023-01-26T03:07:09;1.10;99.90
20750;DHT22;10535;50.664;4.564;2023-01-26T03:09:35;1.10;99.90
20750;DHT22;10535;50.664;4.564;2023-01-26T03:12:01;1.20;99.90
20750;DHT22;10535;50.664;4.564;2023-01-26T03:14:26;0.90;99.90
20750;DHT22;10535;50.664;4.564;2023-01-26T03:16:52;0.80;99.90
20750;DHT22;10535;50.664;4.564;2023-01-26T03:19:17;1.00;99.90
20750;DHT22;10535;50.664;4.564;2023-01-26T03:22:02;1.00;99.90
20750;DHT22;10535;50.664;4.564;2023-01-26T03:24:46;1.10;99.90
20750;DHT22;10535;50.664;4.564;2023-01-26T03:27:35;1.20;99.90
20750;DHT22;10535;50.664;4.564;2023-01-26T03:30:01;1.10;99.90
20750;DHT22;10535;50.664;4.564;2023-01-26T03:32:26;1.30;99.90
20750;DHT22;10535;50.664;4.564;2023-01-26T03:34:52;1.10;99.90
20750;DHT22;10535;50.664;4.564;2023-01-26T03:37:18;1.10;99.90
20750;DHT22;10535;50.664;4.564;2023-01-26T03:39:47;1.10;99.90
20750;DHT22;10535;50.664;4.564;2023-01-26T03:42:33;1.10;99.90
20750;DHT22;10535;50.664;4.564;2023-01-26T03:45:17;1.10;99.90
20750;DHT22;10535;50.664;4.564;2023-01-26T03:48:09;1.10;99.90
20750;DHT22;10535;50.664;4.564;2023-01-26T03:50:54;1.20;99.90
20750;DHT22;10535;50.664;4.564;2023-01-26T03:53:37;1.20;99.90
20750;DHT22;10535;50.664;4.564;2023-01-26T03:56:22;1.30;99.90
20750;DHT22;10535;50.664;4.564;2023-01-26T03:58:57;1.30;99.90
20750;DHT22;10535;50.664;4.564;2023-01-26T04:01:37;1.30;99.90
20750;DHT22;10535;50.664;4.564;2023-01-26T04:04:03;1.30;99.90
20750;DHT22;10535;50.664;4.564;2023-01-26T04:06:48;1.20;99.90
20750;DHT22;10535;50.664;4.564;2023-01-26T04:09:33;1.40;99.90
20750;DHT22;10535;50.664;4.564;2023-01-26T04:12:01;1.40;99.90
20750;DHT22;10535;50.664;4.564;2023-01-26T04:14:26;1.20;99.90
20750;DHT22;10535;50.664;4.564;2023-01-26T04:17:10;1.40;99.90
20750;DHT22;10535;50.664;4.564;2023-01-26T04:19:54;1.40;99.90
20750;DHT22;10535;50.664;4.564;2023-01-26T04:22:39;1.40;99.90
20750;DHT22;10535;50.664;4.564;2023-01-26T04:25:14;1.30;99.90
20750;DHT22;10535;50.664;4.564;2023-01-26T04:27:40;1.40;99.90
20750;DHT22;10535;50.664;4.564;2023-01-26T04:30:09;1.60;99.90
20750;DHT22;10535;50.664;4.564;2023-01-26T04:32:35;1.40;99.90
20750;DHT22;10535;50.664;4.564;2023-01-26T04:35:01;1.40;99.90
20750;DHT22;10535;50.664;4.564;2023-01-26T04:37:27;1.40;99.90
20750;DHT22;10535;50.664;4.564;2023-01-26T04:39:52;1.30;99.90
20750;DHT22;10535;50.664;4.564;2023-01-26T04:42:18;1.50;99.90
20750;DHT22;10535;50.664;4.564;2023-01-26T04:44:43;1.30;99.90
20750;DHT22;10535;50.664;4.564;2023-01-26T04:47:09;1.30;99.90
20750;DHT22;10535;50.664;4.564;2023-01-26T04:49:35;1.20;99.90
20750;DHT22;10535;50.664;4.564;2023-01-26T04:52:00;1.30;99.90
20750;DHT22;10535;50.664;4.564;2023-01-26T04:54:26;1.30;99.90
20750;DHT22;10535;50.664;4.564;2023-01-26T04:56:51;1.30;99.90
20750;DHT22;10535;50.664;4.564;2023-01-26T04:59:17;1.50;99.90
20750;DHT22;10535;50.664;4.564;2023-01-26T05:01:42;1.20;99.90
20750;DHT22;10535;50.664;4.564;2023-01-26T05:04:10;1.20;99.90
20750;DHT22;10535;50.664;4.564;2023-01-26T05:06:37;1.20;99.90
20750;DHT22;10535;50.664;4.564;2023-01-26T05:09:03;1.20;99.90
20750;DHT22;10535;50.664;4.564;2023-01-26T05:11:29;1.30;99.90
20750;DHT22;10535;50.664;4.564;2023-01-26T05:13:55;1.20;99.90
20750;DHT22;10535;50.664;4.564;2023-01-26T05:16:20;1.30;99.90
20750;DHT22;10535;50.664;4.564;2023-01-26T05:18:46;1.30;99.90
20750;DHT22;10535;50.664;4.564;2023-01-26T05:21:11;1.30;99.90
20750;DHT22;10535;50.664;4.564;2023-01-26T05:23:37;1.40;99.90
20750;DHT22;10535;50.664;4.564;2023-01-26T05:26:03;1.50;99.90
20750;DHT22;10535;50.664;4.564;2023-01-26T05:28:29;1.60;99.90
20750;DHT22;10535;50.664;4.564;2023-01-26T05:30:54;1.50;99.90
20750;DHT22;10535;50.664;4.564;2023-01-26T05:33:20;1.60;99.90
20750;DHT22;10535;50.664;4.564;2023-01-26T05:35:51;1.80;99.90
20750;DHT22;10535;50.664;4.564;2023-01-26T05:38:17;1.90;99.90
20750;DHT22;10535;50.664;4.564;2023-01-26T05:40:43;1.70;99.90
20750;DHT22;10535;50.664;4.564;2023-01-26T05:43:09;1.70;99.90
20750;DHT22;10535;50.664;4.564;2023-01-26T05:45:39;1.40;99.90
20750;DHT22;10535;50.664;4.564;2023-01-26T05:48:05;1.50;99.90
20750;DHT22;10535;50.664;4.564;2023-01-26T05:50:31;1.50;99.90
20750;DHT22;10535;50.664;4.564;2023-01-26T05:52:56;1.80;99.90
20750;DHT22;10535;50.664;4.564;2023-01-26T05:55:23;1.70;99.90
20750;DHT22;10535;50.664;4.564;2023-01-26T05:57:49;1.70;99.90
20750;DHT22;10535;50.664;4.564;2023-01-26T06:00:16;1.60;99.90
20750;DHT22;10535;50.664;4.564;2023-01-26T06:02:42;1.70;99.90
20750;DHT22;10535;50.664;4.564;2023-01-26T06:05:08;1.70;99.90
20750;DHT22;10535;50.664;4.564;2023-01-26T06:07:33;1.60;99.90
20750;DHT22;10535;50.664;4.564;2023-01-26T06:09:59;1.60;99.90
20750;DHT22;10535;50.664;4.564;2023-01-26T06:12:25;1.60;99.90
20750;DHT22;10535;50.664;4.564;2023-01-26T06:14:56;1.60;99.90
20750;DHT22;10535;50.664;4.564;2023-01-26T06:17:21;1.60;99.90
20750;DHT22;10535;50.664;4.564;2023-01-26T06:19:47;1.70;99.90
20750;DHT22;10535;50.664;4.564;2023-01-26T06:22:13;1.80;99.90
20750;DHT22;10535;50.664;4.564;2023-01-26T06:24:38;1.90;99.90
20750;DHT22;10535;50.664;4.564;2023-01-26T06:27:06;1.80;99.90
20750;DHT22;10535;50.664;4.564;2023-01-26T06:29:33;1.70;99.90
20750;DHT22;10535;50.664;4.564;2023-01-26T06:31:59;1.60;99.90
20750;DHT22;10535;50.664;4.564;2023-01-26T06:34:25;1.70;99.90
20750;DHT22;10535;50.664;4.564;2023-01-26T06:36:52;1.70;99.90
20750;DHT22;10535;50.664;4.564;2023-01-26T06:39:22;1.70;99.90
20750;DHT22;10535;50.664;4.564;2023-01-26T06:41:48;1.70;99.90
20750;DHT22;10535;50.664;4.564;2023-01-26T06:44:13;1.60;99.90
20750;DHT22;10535;50.664;4.564;2023-01-26T06:46:39;1.70;99.90
20750;DHT22;10535;50.664;4.564;2023-01-26T06:49:07;1.60;99.90
20750;DHT22;10535;50.664;4.564;2023-01-26T06:51:55;1.70;99.90
20750;DHT22;10535;50.664;4.564;2023-01-26T06:54:26;1.80;99.90
20750;DHT22;10535;50.664;4.564;2023-01-26T06:56:51;1.90;99.90
20750;DHT22;10535;50.664;4.564;2023-01-26T06:59:18;1.80;99.90
20750;DHT22;10535;50.664;4.564;2023-01-26T07:01:45;1.80;99.90
20750;DHT22;10535;50.664;4.564;2023-01-26T07:04:14;1.80;99.90
20750;DHT22;10535;50.664;4.564;2023-01-26T07:06:40;1.90;99.90
20750;DHT22;10535;50.664;4.564;2023-01-26T07:09:08;1.80;99.90
20750;DHT22;10535;50.664;4.564;2023-01-26T07:11:33;1.70;99.90
20750;DHT22;10535;50.664;4.564;2023-01-26T07:13:59;1.90;99.90
20750;DHT22;10535;50.664;4.564;2023-01-26T07:16:25;1.80;99.90
20750;DHT22;10535;50.664;4.564;2023-01-26T07:18:52;1.80;99.90
20750;DHT22;10535;50.664;4.564;2023-01-26T07:21:18;1.80;99.90
20750;DHT22;10535;50.664;4.564;2023-01-26T07:23:44;1.80;99.90
20750;DHT22;10535;50.664;4.564;2023-01-26T07:26:10;1.90;99.90
20750;DHT22;10535;50.664;4.564;2023-01-26T07:28:35;2.00;99.90
20750;DHT22;10535;50.664;4.564;2023-01-26T07:31:02;2.00;99.90
20750;DHT22;10535;50.664;4.564;2023-01-26T07:33:28;1.90;99.90
20750;DHT22;10535;50.664;4.564;2023-01-26T07:35:56;1.90;99.90
20750;DHT22;10535;50.664;4.564;2023-01-26T07:38:22;1.80;99.90
20750;DHT22;10535;50.664;4.564;2023-01-26T07:40:48;1.80;99.90
20750;DHT22;10535;50.664;4.564;2023-01-26T07:43:14;1.70;99.90
20750;DHT22;10535;50.664;4.564;2023-01-26T07:45:44;1.80;99.90
20750;DHT22;10535;50.664;4.564;2023-01-26T07:48:10;1.70;99.90
20750;DHT22;10535;50.664;4.564;2023-01-26T07:50:35;1.70;99.90
20750;DHT22;10535;50.664;4.564;2023-01-26T07:53:01;1.80;99.90
20750;DHT22;10535;50.664;4.564;2023-01-26T07:55:27;1.80;99.90
20750;DHT22;10535;50.664;4.564;2023-01-26T07:57:52;1.70;99.90
20750;DHT22;10535;50.664;4.564;2023-01-26T08:00:18;1.90;99.90
20750;DHT22;10535;50.664;4.564;2023-01-26T08:02:48;1.90;99.90
20750;DHT22;10535;50.664;4.564;2023-01-26T08:05:14;2.10;99.90
20750;DHT22;10535;50.664;4.564;2023-01-26T08:07:40;1.90;99.90
20750;DHT22;10535;50.664;4.564;2023-01-26T08:10:06;2.10;99.90
20750;DHT22;10535;50.664;4.564;2023-01-26T08:12:34;2.30;99.90
20750;DHT22;10535;50.664;4.564;2023-01-26T08:15:00;2.20;99.90
20750;DHT22;10535;50.664;4.564;2023-01-26T08:17:27;2.20;99.90
20750;DHT22;10535;50.664;4.564;2023-01-26T08:19:53;2.20;99.90
20750;DHT22;10535;50.664;4.564;2023-01-26T08:22:18;2.10;99.90
20750;DHT22;10535;50.664;4.564;2023-01-26T08:24:44;2.60;99.90
20750;DHT22;10535;50.664;4.564;2023-01-26T08:27:10;2.70;99.90
20750;DHT22;10535;50.664;4.564;2023-01-26T08:29:35;2.40;99.90
20750;DHT22;10535;50.664;4.564;2023-01-26T08:32:01;2.60;99.90
20750;DHT22;10535;50.664;4.564;2023-01-26T08:34:26;2.50;99.90
20750;DHT22;10535;50.664;4.564;2023-01-26T08:36:52;2.40;99.90
20750;DHT22;10535;50.664;4.564;2023-01-26T08:39:17;2.30;99.90
20750;DHT22;10535;50.664;4.564;2023-01-26T08:41:44;2.40;99.90
20750;DHT22;10535;50.664;4.564;2023-01-26T08:44:09;2.40;99.90
20750;DHT22;10535;50.664;4.564;2023-01-26T08:46:35;2.60;99.90
20750;DHT22;10535;50.664;4.564;2023-01-26T08:49:01;2.60;99.90
20750;DHT22;10535;50.664;4.564;2023-01-26T08:51:27;2.30;99.90
20750;DHT22;10535;50.664;4.564;2023-01-26T08:53:52;2.60;99.90
20750;DHT22;10535;50.664;4.564;2023-01-26T08:56:19;2.60;99.90
20750;DHT22;10535;50.664;4.564;2023-01-26T08:58:45;2.60;99.90
20750;DHT22;10535;50.664;4.564;2023-01-26T09:01:12;2.50;99.90
20750;DHT22;10535;50.664;4.564;2023-01-26T09:03:38;2.40;99.90
20750;DHT22;10535;50.664;4.564;2023-01-26T09:06:05;2.70;99.90
20750;DHT22;10535;50.664;4.564;2023-01-26T09:08:32;2.50;99.90
20750;DHT22;10535;50.664;4.564;2023-01-26T09:10:58;2.40;99.90
20750;DHT22;10535;50.664;4.564;2023-01-26T09:13:24;2.40;99.90
20750;DHT22;10535;50.664;4.564;2023-01-26T09:15:50;2.30;99.90
20750;DHT22;10535;50.664;4.564;2023-01-26T09:18:16;2.30;99.90
20750;DHT22;10535;50.664;4.564;2023-01-26T09:20:42;2.50;99.90
20750;DHT22;10535;50.664;4.564;2023-01-26T09:23:08;2.40;99.90
20750;DHT22;10535;50.664;4.564;2023-01-26T09:25:38;2.40;99.90
20750;DHT22;10535;50.664;4.564;2023-01-26T09:28:04;2.60;99.90
20750;DHT22;10535;50.664;4.564;2023-01-26T09:30:30;2.50;99.90
20750;DHT22;10535;50.664;4.564;2023-01-26T09:33:02;2.70;99.90
20750;DHT22;10535;50.664;4.564;2023-01-26T09:35:29;2.60;99.90
20750;DHT22;10535;50.664;4.564;2023-01-26T09:37:55;2.60;99.90
20750;DHT22;10535;50.664;4.564;2023-01-26T09:40:29;2.80;99.90
20750;DHT22;10535;50.664;4.564;2023-01-26T09:43:42;2.80;99.90
20750;DHT22;10535;50.664;4.564;2023-01-26T09:46:24;2.70;99.90
20750;DHT22;10535;50.664;4.564;2023-01-26T09:51:37;2.80;99.90
20750;DHT22;10535;50.664;4.564;2023-01-26T09:56:46;2.70;99.90
20750;DHT22;10535;50.664;4.564;2023-01-26T09:59:37;2.90;99.90
20750;DHT22;10535;50.664;4.564;2023-01-26T10:05:07;2.80;99.90
20750;DHT22;10535;50.664;4.564;2023-01-26T10:07:36;2.90;99.90
20750;DHT22;10535;50.664;4.564;2023-01-26T10:10:02;2.80;99.90
20750;DHT22;10535;50.664;4.564;2023-01-26T10:12:34;2.80;99.90
20750;DHT22;10535;50.664;4.564;2023-01-26T10:17:55;3.10;99.90
20750;DHT22;10535;50.664;4.564;2023-01-26T10:23:06;3.20;99.90
20750;DHT22;10535;50.664;4.564;2023-01-26T10:25:39;3.00;99.90
20750;DHT22;10535;50.664;4.564;2023-01-26T10:30:40;3.50;99.90
20750;DHT22;10535;50.664;4.564;2023-01-26T10:33:33;3.40;99.90
20750;DHT22;10535;50.664;4.564;2023-01-26T10:35:58;3.40;99.90
20750;DHT22;10535;50.664;4.564;2023-01-26T10:41:00;3.60;99.90
20750;DHT22;10535;50.664;4.564;2023-01-26T10:43:26;3.60;99.90
20750;DHT22;10535;50.664;4.564;2023-01-26T10:45:52;3.40;99.90
20750;DHT22;10535;50.664;4.564;2023-01-26T10:48:23;3.50;99.90
20750;DHT22;10535;50.664;4.564;2023-01-26T10:50:51;3.60;99.90
20750;DHT22;10535;50.664;4.564;2023-01-26T10:53:23;3.60;99.90
20750;DHT22;10535;50.664;4.564;2023-01-26T10:56:13;3.30;99.90
20750;DHT22;10535;50.664;4.564;2023-01-26T10:58:47;3.20;99.90
20750;DHT22;10535;50.664;4.564;2023-01-26T11:01:15;3.50;99.90
20750;DHT22;10535;50.664;4.564;2023-01-26T11:04:00;3.70;99.90
20750;DHT22;10535;50.664;4.564;2023-01-26T11:06:28;3.30;99.90
20750;DHT22;10535;50.664;4.564;2023-01-26T11:09:08;3.50;99.90
20750;DHT22;10535;50.664;4.564;2023-01-26T11:11:34;3.30;99.90
20750;DHT22;10535;50.664;4.564;2023-01-26T11:16:37;3.60;99.90
20750;DHT22;10535;50.664;4.564;2023-01-26T11:22:05;3.30;99.90
20750;DHT22;10535;50.664;4.564;2023-01-26T11:34:53;3.20;99.90
20750;DHT22;10535;50.664;4.564;2023-01-26T11:40:27;3.20;99.90
20750;DHT22;10535;50.664;4.564;2023-01-26T11:48:39;3.10;99.90
20750;DHT22;10535;50.664;4.564;2023-01-26T11:57:00;3.20;99.90
20750;DHT22;10535;50.664;4.564;2023-01-26T11:59:38;3.20;99.90
20750;DHT22;10535;50.664;4.564;2023-01-26T12:04:45;3.10;99.90
20750;DHT22;10535;50.664;4.564;2023-01-26T12:09:45;3.00;99.90
20750;DHT22;10535;50.664;4.564;2023-01-26T12:12:13;3.20;99.90
20750;DHT22;10535;50.664;4.564;2023-01-26T12:15:03;3.00;99.90
20750;DHT22;10535;50.664;4.564;2023-01-26T12:17:42;3.20;99.90
20750;DHT22;10535;50.664;4.564;2023-01-26T12:23:12;3.20;99.90
20750;DHT22;10535;50.664;4.564;2023-01-26T12:25:45;3.30;99.90
20750;DHT22;10535;50.664;4.564;2023-01-26T12:28:24;3.30;99.90
20750;DHT22;10535;50.664;4.564;2023-01-26T12:30:57;3.20;99.90
20750;DHT22;10535;50.664;4.564;2023-01-26T12:33:25;3.30;99.90
20750;DHT22;10535;50.664;4.564;2023-01-26T12:38:54;3.30;99.90
20750;DHT22;10535;50.664;4.564;2023-01-26T12:41:39;3.30;99.90
20750;DHT22;10535;50.664;4.564;2023-01-26T12:44:25;3.40;99.90
20750;DHT22;10535;50.664;4.564;2023-01-26T12:46:57;3.50;99.90
20750;DHT22;10535;50.664;4.564;2023-01-26T12:49:34;3.60;99.90
20750;DHT22;10535;50.664;4.564;2023-01-26T12:52:23;3.60;99.90
20750;DHT22;10535;50.664;4.564;2023-01-26T12:55:11;3.60;99.90
20750;DHT22;10535;50.664;4.564;2023-01-26T12:57:43;3.50;99.90
20750;DHT22;10535;50.664;4.564;2023-01-26T13:00:31;3.40;99.90
20750;DHT22;10535;50.664;4.564;2023-01-26T13:03:27;3.30;99.90
20750;DHT22;10535;50.664;4.564;2023-01-26T13:06:16;3.30;99.90
20750;DHT22;10535;50.664;4.564;2023-01-26T13:09:22;3.30;99.90
20750;DHT22;10535;50.664;4.564;2023-01-26T13:11:54;3.40;99.90
20750;DHT22;10535;50.664;4.564;2023-01-26T13:14:33;3.60;99.90
20750;DHT22;10535;50.664;4.564;2023-01-26T13:24:57;3.80;99.90
20750;DHT22;10535;50.664;4.564;2023-01-26T13:29:54;4.10;99.90
20750;DHT22;10535;50.664;4.564;2023-01-26T13:34:50;4.10;99.90
20750;DHT22;10535;50.664;4.564;2023-01-26T13:40:15;4.30;99.90
20750;DHT22;10535;50.664;4.564;2023-01-26T13:45:59;4.30;99.90
20750;DHT22;10535;50.664;4.564;2023-01-26T13:51:06;4.50;99.90
20750;DHT22;10535;50.664;4.564;2023-01-26T13:53:36;4.60;99.90
20750;DHT22;10535;50.664;4.564;2023-01-26T13:56:04;4.60;99.90
20750;DHT22;10535;50.664;4.564;2023-01-26T13:58:32;4.70;99.90
20750;DHT22;10535;50.664;4.564;2023-01-26T14:01:05;5.00;99.90
20750;DHT22;10535;50.664;4.564;2023-01-26T14:03:31;4.90;99.90
20750;DHT22;10535;50.664;4.564;2023-01-26T14:06:07;5.00;99.90
20750;DHT22;10535;50.664;4.564;2023-01-26T14:08:35;5.10;99.90
20750;DHT22;10535;50.664;4.564;2023-01-26T14:11:04;5.20;99.90
20750;DHT22;10535;50.664;4.564;2023-01-26T14:13:37;5.00;99.90
20750;DHT22;10535;50.664;4.564;2023-01-26T14:16:05;4.90;99.90
20750;DHT22;10535;50.664;4.564;2023-01-26T14:18:31;4.80;99.90
20750;DHT22;10535;50.664;4.564;2023-01-26T14:21:12;4.90;99.90
20750;DHT22;10535;50.664;4.564;2023-01-26T14:23:38;5.00;99.90
20750;DHT22;10535;50.664;4.564;2023-01-26T14:28:42;5.40;99.90
20750;DHT22;10535;50.664;4.564;2023-01-26T14:31:18;5.40;99.90
20750;DHT22;10535;50.664;4.564;2023-01-26T14:33:45;5.50;99.90
20750;DHT22;10535;50.664;4.564;2023-01-26T14:36:14;5.70;99.90
20750;DHT22;10535;50.664;4.564;2023-01-26T14:38:42;5.60;99.90
20750;DHT22;10535;50.664;4.564;2023-01-26T14:41:34;5.70;99.90
20750;DHT22;10535;50.664;4.564;2023-01-26T14:44:02;5.50;99.90
20750;DHT22;10535;50.664;4.564;2023-01-26T14:46:54;5.50;99.90
20750;DHT22;10535;50.664;4.564;2023-01-26T14:51:49;5.40;99.90
20750;DHT22;10535;50.664;4.564;2023-01-26T14:54:31;5.30;99.90
20750;DHT22;10535;50.664;4.564;2023-01-26T14:56:58;5.40;99.90
20750;DHT22;10535;50.664;4.564;2023-01-26T14:59:34;5.60;99.90
20750;DHT22;10535;50.664;4.564;2023-01-26T15:02:18;5.60;99.90
20750;DHT22;10535;50.664;4.564;2023-01-26T15:04:57;5.80;99.90
20750;DHT22;10535;50.664;4.564;2023-01-26T15:07:41;6.00;99.90
20750;DHT22;10535;50.664;4.564;2023-01-26T15:10:31;6.00;99.90
20750;DHT22;10535;50.664;4.564;2023-01-26T15:15:29;6.00;99.90
20750;DHT22;10535;50.664;4.564;2023-01-26T15:21:09;6.20;99.90
20750;DHT22;10535;50.664;4.564;2023-01-26T15:23:40;6.10;99.90
20750;DHT22;10535;50.664;4.564;2023-01-26T15:26:29;6.20;99.90
20750;DHT22;10535;50.664;4.564;2023-01-26T15:28:55;6.10;99.90
20750;DHT22;10535;50.664;4.564;2023-01-26T15:31:29;6.20;99.90
20750;DHT22;10535;50.664;4.564;2023-01-26T15:33:55;6.10;99.90
20750;DHT22;10535;50.664;4.564;2023-01-26T15:39:12;6.30;99.90
20750;DHT22;10535;50.664;4.564;2023-01-26T15:41:38;6.00;99.90
20750;DHT22;10535;50.664;4.564;2023-01-26T15:44:07;6.10;99.90
20750;DHT22;10535;50.664;4.564;2023-01-26T15:46:33;6.00;99.90
20750;DHT22;10535;50.664;4.564;2023-01-26T15:48:59;6.00;99.90
20750;DHT22;10535;50.664;4.564;2023-01-26T15:51:24;6.10;99.90
20750;DHT22;10535;50.664;4.564;2023-01-26T15:53:50;6.10;99.90
20750;DHT22;10535;50.664;4.564;2023-01-26T15:56:16;6.00;99.90
20750;DHT22;10535;50.664;4.564;2023-01-26T15:58:41;6.00;99.90
20750;DHT22;10535;50.664;4.564;2023-01-26T16:01:12;6.00;99.90
20750;DHT22;10535;50.664;4.564;2023-01-26T16:03:39;6.10;99.90
20750;DHT22;10535;50.664;4.564;2023-01-26T16:06:05;6.10;99.90
20750;DHT22;10535;50.664;4.564;2023-01-26T16:08:30;6.00;99.90
20750;DHT22;10535;50.664;4.564;2023-01-26T16:10:56;5.90;99.90
20750;DHT22;10535;50.664;4.564;2023-01-26T16:13:23;6.10;99.90
20750;DHT22;10535;50.664;4.564;2023-01-26T16:15:51;6.20;99.90
20750;DHT22;10535;50.664;4.564;2023-01-26T16:18:18;6.10;99.90
20750;DHT22;10535;50.664;4.564;2023-01-26T16:20:46;6.20;99.90
20750;DHT22;10535;50.664;4.564;2023-01-26T16:23:25;6.10;99.90
20750;DHT22;10535;50.664;4.564;2023-01-26T16:25:51;6.00;99.90
20750;DHT22;10535;50.664;4.564;2023-01-26T16:28:18;6.00;99.90
20750;DHT22;10535;50.664;4.564;2023-01-26T16:30:45;6.10;99.90
20750;DHT22;10535;50.664;4.564;2023-01-26T16:33:14;6.00;99.90
20750;DHT22;10535;50.664;4.564;2023-01-26T16:35:40;6.10;99.90
20750;DHT22;10535;50.664;4.564;2023-01-26T16:38:06;6.10;99.90
20750;DHT22;10535;50.664;4.564;2023-01-26T16:40:42;6.20;99.90
20750;DHT22;10535;50.664;4.564;2023-01-26T16:43:23;6.10;99.90
20750;DHT22;10535;50.664;4.564;2023-01-26T16:45:50;6.10;99.90
20750;DHT22;10535;50.664;4.564;2023-01-26T16:48:16;6.20;99.90
20750;DHT22;10535;50.664;4.564;2023-01-26T16:50:43;6.10;99.90
20750;DHT22;10535;50.664;4.564;2023-01-26T16:53:17;6.00;99.90
20750;DHT22;10535;50.664;4.564;2023-01-26T16:55:44;6.10;99.90
20750;DHT22;10535;50.664;4.564;2023-01-26T16:58:10;6.10;99.90
20750;DHT22;10535;50.664;4.564;2023-01-26T17:00:36;6.10;99.90
20750;DHT22;10535;50.664;4.564;2023-01-26T17:03:02;6.10;99.90
20750;DHT22;10535;50.664;4.564;2023-01-26T17:05:27;6.20;99.90
20750;DHT22;10535;50.664;4.564;2023-01-26T17:07:53;6.20;99.90
20750;DHT22;10535;50.664;4.564;2023-01-26T17:10:19;6.00;99.90
20750;DHT22;10535;50.664;4.564;2023-01-26T17:12:46;6.00;99.90
20750;DHT22;10535;50.664;4.564;2023-01-26T17:15:12;6.20;99.90
20750;DHT22;10535;50.664;4.564;2023-01-26T17:17:38;6.10;99.90
20750;DHT22;10535;50.664;4.564;2023-01-26T17:20:05;6.30;99.90
20750;DHT22;10535;50.664;4.564;2023-01-26T17:22:30;6.10;99.90
20750;DHT22;10535;50.664;4.564;2023-01-26T17:24:56;6.00;99.90
20750;DHT22;10535;50.664;4.564;2023-01-26T17:27:23;5.90;99.90
20750;DHT22;10535;50.664;4.564;2023-01-26T17:29:49;6.00;99.90
20750;DHT22;10535;50.664;4.564;2023-01-26T17:32:16;5.90;99.90
20750;DHT22;10535;50.664;4.564;2023-01-26T17:34:51;6.10;99.90
20750;DHT22;10535;50.664;4.564;2023-01-26T17:37:18;5.90;99.90
20750;DHT22;10535;50.664;4.564;2023-01-26T17:39:43;5.90;99.90
20750;DHT22;10535;50.664;4.564;2023-01-26T17:42:09;5.90;99.90
20750;DHT22;10535;50.664;4.564;2023-01-26T17:44:34;5.80;99.90